createdAt,value
2022-10-09T00:00:03.762Z,2.28
2022-10-09T00:05:07.914Z,2.22
2022-10-09T00:10:11.404Z,2.22
2022-10-09T00:15:16.251Z,2.38
2022-10-09T00:20:19.658Z,2.60
2022-10-09T00:25:22.969Z,2.42
2022-10-09T00:30:28.071Z,3.17
2022-10-09T00:35:32.083Z,2.60
2022-10-09T00:40:35.661Z,2.75
2022-10-09T00:45:41.414Z,2.80
2022-10-09T00:50:49.823Z,2.80
2022-10-09T00:55:53.563Z,3.22
2022-10-09T01:00:58.309Z,3.40
2022-10-09T01:06:09.579Z,3.20
2022-10-09T01:11:22.015Z,2.85
2022-10-09T01:16:30.374Z,3.03
2022-10-09T01:21:39.696Z,3.15
2022-10-09T01:27:05.706Z,3.25
2022-10-09T01:32:11.072Z,3.83
2022-10-09T01:37:16.011Z,3.80
2022-10-09T01:42:23.487Z,3.93
2022-10-09T01:47:27.073Z,3.75
2022-10-09T01:52:41.269Z,2.75
2022-10-09T01:57:51.752Z,3.47
2022-10-09T02:02:56.579Z,3.60
2022-10-09T02:08:00.416Z,3.25
2022-10-09T02:13:05.760Z,2.95
2022-10-09T02:18:14.057Z,2.95
2022-10-09T02:23:19.326Z,3.03
2022-10-09T02:28:24.374Z,3.57
2022-10-09T02:33:33.634Z,3.10
2022-10-09T02:38:36.939Z,3.30
2022-10-09T02:43:41.586Z,4.00
2022-10-09T02:48:44.905Z,3.08
2022-10-09T02:53:48.198Z,3.58
2022-10-09T02:58:53.270Z,2.92
2022-10-09T03:03:56.590Z,2.78
2022-10-09T03:08:59.839Z,3.17
2022-10-09T03:14:04.479Z,3.92
2022-10-09T03:19:07.756Z,3.42
2022-10-09T03:24:11.371Z,3.05
2022-10-09T03:29:16.974Z,2.83
2022-10-09T03:34:20.344Z,3.05
2022-10-09T03:39:23.556Z,2.60
2022-10-09T03:44:28.303Z,3.13
2022-10-09T03:49:31.539Z,3.75
2022-10-09T03:54:34.896Z,3.20
2022-10-09T03:59:39.558Z,3.03
2022-10-09T04:04:42.884Z,3.30
2022-10-09T04:09:46.182Z,3.28
2022-10-09T04:14:50.865Z,3.38
2022-10-09T04:19:54.038Z,3.03
2022-10-09T04:24:57.347Z,3.25
2022-10-09T04:30:02.079Z,2.73
2022-10-09T04:35:06.045Z,3.17
2022-10-09T04:40:09.942Z,3.13
2022-10-09T04:45:14.586Z,3.47
2022-10-09T04:50:19.580Z,2.70
2022-10-09T04:55:22.858Z,3.65
2022-10-09T05:00:27.465Z,2.63
2022-10-09T05:05:32.860Z,2.47
2022-10-09T05:10:40.226Z,7.07
2022-10-09T05:15:44.897Z,3.20
2022-10-09T05:20:48.088Z,5.00
2022-10-09T05:25:56.133Z,3.70
2022-10-09T05:31:00.995Z,2.67
2022-10-09T05:36:08.596Z,3.10
2022-10-09T05:41:14.427Z,3.00
2022-10-09T05:46:25.196Z,2.87
2022-10-09T05:51:30.469Z,2.77
2022-10-09T05:56:35.423Z,2.20
2022-10-09T06:01:41.574Z,2.77
2022-10-09T06:06:48.959Z,3.20
2022-10-09T06:11:53.070Z,2.80
2022-10-09T06:16:59.980Z,2.70
2022-10-09T06:22:03.261Z,2.70
2022-10-09T06:27:06.566Z,2.45
2022-10-09T06:32:11.207Z,2.95
2022-10-09T06:37:14.487Z,3.45
2022-10-09T06:42:18.001Z,3.38
2022-10-09T06:47:22.654Z,3.28
2022-10-09T06:52:26.133Z,3.03
2022-10-09T06:57:29.559Z,2.35
2022-10-09T07:02:35.111Z,3.22
2022-10-09T07:07:41.678Z,3.05
2022-10-09T07:12:46.173Z,3.10
2022-10-09T07:17:51.115Z,3.55
2022-10-09T07:22:54.433Z,3.63
2022-10-09T07:27:57.797Z,3.60
2022-10-09T07:33:03.172Z,3.65
2022-10-09T07:38:06.465Z,2.83
2022-10-09T07:43:09.826Z,3.20
2022-10-09T07:48:14.576Z,3.53
2022-10-09T07:53:17.867Z,3.22
2022-10-09T07:58:21.191Z,3.45
2022-10-09T08:03:25.876Z,3.15
2022-10-09T08:08:29.234Z,3.17
2022-10-09T08:13:32.532Z,2.38
2022-10-09T08:18:37.737Z,2.10
2022-10-09T08:23:41.101Z,2.30
2022-10-09T08:28:45.758Z,2.20
2022-10-09T08:33:53.975Z,1.63
2022-10-09T08:38:57.285Z,1.90
2022-10-09T08:44:04.562Z,1.40
2022-10-09T08:49:18.064Z,1.70
2022-10-09T08:54:27.649Z,1.80
2022-10-09T08:59:30.951Z,1.70
2022-10-09T09:04:56.619Z,1.70
2022-10-09T09:10:07.372Z,1.35
2022-10-09T09:15:26.994Z,1.67
2022-10-09T09:20:40.227Z,1.55
2022-10-09T09:25:46.188Z,1.73
2022-10-09T09:30:55.979Z,1.30
2022-10-09T09:36:09.518Z,1.50
2022-10-09T09:41:13.427Z,1.33
2022-10-09T09:46:20.401Z,1.30
2022-10-09T09:51:30.527Z,1.30
2022-10-09T09:56:53.387Z,1.63
2022-10-09T10:02:03.882Z,1.42
2022-10-09T10:07:08.747Z,1.25
2022-10-09T10:12:17.744Z,1.33
2022-10-09T10:23:00.308Z,1.20
2022-10-09T10:28:12.289Z,1.10
2022-10-09T10:33:20.756Z,1.10
2022-10-09T10:38:30.955Z,1.10
2022-10-09T10:43:40.238Z,0.85
2022-10-09T10:48:47.102Z,0.82
2022-10-09T10:54:04.628Z,0.95
2022-10-09T10:59:28.109Z,1.17
2022-10-09T11:04:45.666Z,0.70
2022-10-09T11:10:00.169Z,0.75
2022-10-09T11:15:14.048Z,0.90
2022-10-09T11:20:34.810Z,0.70
2022-10-09T11:25:49.787Z,0.70
2022-10-09T11:30:58.667Z,0.80
2022-10-09T11:36:05.820Z,0.68
2022-10-09T11:41:11.040Z,0.90
2022-10-09T11:46:22.968Z,1.20
2022-10-09T11:51:33.911Z,1.23
2022-10-09T11:56:38.549Z,1.08
2022-10-09T12:01:44.744Z,1.45
2022-10-09T12:06:50.781Z,1.42
2022-10-09T12:12:03.530Z,1.30
2022-10-09T12:17:17.453Z,1.55
2022-10-09T12:22:26.382Z,0.90
2022-10-09T12:27:35.780Z,1.38
2022-10-09T12:32:41.897Z,1.98
2022-10-09T12:37:45.149Z,2.08
2022-10-09T12:42:52.428Z,2.17
2022-10-09T12:47:56.439Z,1.40
2022-10-09T12:53:01.960Z,1.83
2022-10-09T12:58:09.950Z,1.13
2022-10-09T13:03:24.395Z,0.80
2022-10-09T13:08:31.153Z,1.10
2022-10-09T13:13:36.168Z,1.63
2022-10-09T13:18:39.980Z,1.10
2022-10-09T13:23:43.621Z,1.08
2022-10-09T13:28:48.346Z,1.00
2022-10-09T13:33:51.929Z,0.85
2022-10-09T13:38:55.205Z,0.93
2022-10-09T13:44:00.027Z,1.02
2022-10-09T13:49:03.442Z,0.98
2022-10-09T13:54:06.932Z,1.02
2022-10-09T13:59:12.228Z,0.85
2022-10-09T14:04:15.571Z,1.08
2022-10-09T14:09:19.154Z,1.13
2022-10-09T14:14:23.814Z,1.10
2022-10-09T14:19:28.179Z,1.00
2022-10-09T14:24:31.517Z,0.90
2022-10-09T14:29:37.551Z,1.20
2022-10-09T14:34:40.907Z,1.20
2022-10-09T14:39:44.607Z,0.90
2022-10-09T14:44:49.286Z,0.93
2022-10-09T14:49:52.641Z,1.15
2022-10-09T14:54:56.019Z,1.10
2022-10-09T15:00:00.780Z,1.10
2022-10-09T15:05:04.469Z,1.25
2022-10-09T15:10:08.415Z,1.30
2022-10-09T15:15:13.284Z,1.27
2022-10-09T15:20:16.799Z,1.52
2022-10-09T15:25:20.162Z,1.38
2022-10-09T15:30:26.478Z,2.17
2022-10-09T15:35:34.380Z,1.60
2022-10-09T15:40:45.202Z,1.98
2022-10-09T15:45:50.511Z,1.80
2022-10-09T15:50:54.876Z,1.50
2022-10-09T15:55:58.136Z,1.30
2022-10-09T16:01:06.699Z,1.67
2022-10-09T16:06:12.605Z,1.20
2022-10-09T16:11:20.194Z,2.40
2022-10-09T16:16:29.300Z,2.08
2022-10-09T16:27:00.614Z,1.60
2022-10-09T16:32:05.285Z,1.50
2022-10-09T16:37:08.799Z,1.77
2022-10-09T16:42:13.731Z,2.28
2022-10-09T16:47:18.542Z,4.90
2022-10-09T16:52:22.247Z,4.15
2022-10-09T16:57:27.609Z,2.38
2022-10-09T17:02:32.287Z,2.38
2022-10-09T17:07:35.747Z,2.28
2022-10-09T17:12:46.097Z,3.00
2022-10-09T17:17:51.216Z,2.75
2022-10-09T17:22:54.623Z,2.72
2022-10-09T17:28:01.452Z,2.60
2022-10-09T17:33:18.914Z,2.33
2022-10-09T17:38:23.082Z,2.78
2022-10-09T17:43:26.566Z,2.28
2022-10-09T17:48:33.157Z,7.43
2022-10-09T17:53:36.528Z,2.58
2022-10-09T17:58:39.889Z,2.25
2022-10-09T18:03:45.781Z,2.03
2022-10-09T18:08:49.341Z,2.40
2022-10-09T18:13:53.716Z,3.05
2022-10-09T18:19:01.319Z,2.80
2022-10-09T18:24:04.888Z,2.75
2022-10-09T18:29:08.638Z,3.17
2022-10-09T18:34:14.888Z,2.65
2022-10-09T18:39:21.589Z,2.60
2022-10-09T18:44:26.864Z,2.65
2022-10-09T18:49:33.140Z,3.00
2022-10-09T18:54:37.346Z,2.50
2022-10-09T18:59:41.499Z,2.85
2022-10-09T19:04:46.201Z,2.60
2022-10-09T19:09:54.916Z,4.70
2022-10-09T19:14:59.760Z,3.80
2022-10-09T19:20:04.635Z,3.20
2022-10-09T19:25:08.520Z,3.83
2022-10-09T19:30:12.491Z,2.72
2022-10-09T19:35:17.552Z,3.50
2022-10-09T19:40:20.869Z,4.55
2022-10-09T19:45:24.478Z,4.63
2022-10-09T19:50:29.311Z,3.92
2022-10-09T19:55:34.370Z,3.28
2022-10-09T20:00:43.185Z,3.22
2022-10-09T20:05:48.007Z,3.63
2022-10-09T20:10:51.298Z,3.60
2022-10-09T20:15:54.769Z,3.50
2022-10-09T20:20:59.527Z,3.78
2022-10-09T20:26:04.114Z,3.60
2022-10-09T20:31:09.927Z,3.65
2022-10-09T20:36:22.795Z,3.72
2022-10-09T20:41:27.296Z,3.58
2022-10-09T20:46:32.743Z,4.18
2022-10-09T20:51:38.530Z,4.53
2022-10-09T20:56:44.735Z,4.18
2022-10-09T21:01:48.021Z,4.20
2022-10-09T21:06:52.853Z,4.13
2022-10-09T21:11:57.515Z,3.67
2022-10-09T21:17:00.812Z,4.00
2022-10-09T21:22:05.590Z,4.32
2022-10-09T21:27:09.467Z,3.45
2022-10-09T21:32:12.714Z,3.95
2022-10-09T21:37:21.396Z,3.35
2022-10-09T21:42:25.376Z,3.83
2022-10-09T21:47:29.012Z,3.55
2022-10-09T21:52:33.818Z,3.78
2022-10-09T21:57:37.070Z,3.85
2022-10-09T22:02:40.500Z,4.05
2022-10-09T22:07:45.335Z,4.15
2022-10-09T22:12:48.950Z,3.85
2022-10-09T22:17:52.427Z,3.75
2022-10-09T22:22:57.078Z,4.35
2022-10-09T22:28:00.498Z,3.80
2022-10-09T22:33:03.841Z,4.40
2022-10-09T22:38:13.420Z,4.03
2022-10-09T22:43:16.716Z,4.22
2022-10-09T22:53:49.976Z,4.13
2022-10-09T22:58:54.789Z,4.75
2022-10-09T23:03:59.020Z,4.57
2022-10-09T23:09:06.937Z,4.47
2022-10-09T23:14:11.523Z,4.40
2022-10-09T23:19:14.987Z,4.50
2022-10-09T23:24:27.005Z,4.60
2022-10-09T23:29:30.396Z,4.57
2022-10-09T23:34:33.724Z,4.93
2022-10-09T23:39:38.456Z,5.00
2022-10-09T23:44:53.709Z,5.07
2022-10-09T23:49:58.465Z,4.53
2022-10-09T23:55:03.204Z,5.13
